< Typhoon 198313 1983 Season Typhoon 198315 >
Typhoon 198314 (JOE)
General InformationTrack Information on Google MapsDetailed Wind InformationList of All Images || Disaster Info.ResourceGoogle EarthGE AnimationAtom FeedGeoJSON
Detalied Best Track (Time Zone = UTC)
Year Month Day Hour Lat. Long. Pressure (hPa) Wind (kt) Class Image Chart
1983 10 9 06 13.0 130.2 1004 0 2 Image Chart
1983 10 9 12 13.3 129.0 1002 0 2 Image Chart
1983 10 9 18 13.6 127.7 1000 0 2 Image Chart
1983 10 10 00 14.0 126.5 1000 0 2 Image Chart
1983 10 10 06 14.3 125.3 1000 0 2 Image Chart
1983 10 10 12 14.7 124.1 1000 0 2 Image Chart
1983 10 10 18 15.3 122.8 1000 0 2 Image Chart
1983 10 11 00 15.7 121.5 998 45 3 Image Chart
1983 10 11 06 16.2 120.0 996 45 3 Image Chart
1983 10 11 12 16.6 118.5 992 45 3 Image Chart
1983 10 11 18 17.0 117.2 990 45 3 Image Chart
1983 10 12 00 17.0 116.0 990 50 4 Image Chart
1983 10 12 06 17.6 115.3 985 50 4 Image Chart
1983 10 12 12 18.1 114.4 985 50 4 Image Chart
1983 10 12 18 18.5 113.5 985 50 4 Image Chart
1983 10 13 00 19.6 113.5 980 50 4 Image Chart
1983 10 13 06 20.7 113.3 975 50 4 Image Chart
1983 10 13 12 21.7 112.7 975 55 4 Image Chart
1983 10 13 18 22.5 112.0 990 40 3 Image Chart
1983 10 14 00 23.1 111.1 1000 0 2 Image Chart
1983 10 14 06 23.8 110.8 1008 0 2 Image Chart
Japan Meteorological Agency Best Track Data | Correction Date : 1992-10-21
< Typhoon 198313 1983 Season Typhoon 198315 >

Help